sensor_id;sensor_type;location;lat;lon;timestamp;temperature;humidity
1950;DHT22;975;48.760;9.152;2022-07-15T02:36:58;21.20;54.40
1950;DHT22;975;48.760;9.152;2022-07-15T02:39:26;17.70;72.70
1950;DHT22;975;48.760;9.152;2022-07-15T02:41:53;17.20;73.50
1950;DHT22;975;48.760;9.152;2022-07-15T02:54:12;17.10;74.20
1950;DHT22;975;48.760;9.152;2022-07-15T10:18:58;16.70;77.50
1950;DHT22;975;48.760;9.152;2022-07-15T11:48:35;27.60;34.40
1950;DHT22;975;48.760;9.152;2022-07-15T14:35:14;28.10;32.70
1950;DHT22;975;48.760;9.152;2022-07-15T14:37:41;29.00;32.20
1950;DHT22;975;48.760;9.152;2022-07-15T14:40:09;28.70;31.90
1950;DHT22;975;48.760;9.152;2022-07-15T14:42:36;28.60;32.30
1950;DHT22;975;48.760;9.152;2022-07-15T14:45:06;28.70;32.90
1950;DHT22;975;48.760;9.152;2022-07-15T14:47:35;28.90;31.80
1950;DHT22;975;48.760;9.152;2022-07-15T14:50:04;29.00;31.60
1950;DHT22;975;48.760;9.152;2022-07-15T14:52:31;28.80;31.80
1950;DHT22;975;48.760;9.152;2022-07-15T14:54:59;28.80;32.00
1950;DHT22;975;48.760;9.152;2022-07-15T14:57:29;28.90;31.80
1950;DHT22;975;48.760;9.152;2022-07-15T14:59:57;28.90;31.90
1950;DHT22;975;48.760;9.152;2022-07-15T15:02:24;28.80;31.90
1950;DHT22;975;48.760;9.152;2022-07-15T16:11:39;29.00;31.90
1950;DHT22;975;48.760;9.152;2022-07-15T16:14:07;35.00;24.10
1950;DHT22;975;48.760;9.152;2022-07-15T16:16:36;34.80;23.80
1950;DHT22;975;48.760;9.152;2022-07-15T16:19:04;34.70;23.90
1950;DHT22;975;48.760;9.152;2022-07-15T16:24:18;34.80;23.90
1950;DHT22;975;48.760;9.152;2022-07-15T16:26:51;35.10;23.10
1950;DHT22;975;48.760;9.152;2022-07-15T16:29:23;33.50;24.30
1950;DHT22;975;48.760;9.152;2022-07-15T16:31:52;32.60;25.20
1950;DHT22;975;48.760;9.152;2022-07-15T16:34:20;32.40;25.70
1950;DHT22;975;48.760;9.152;2022-07-15T16:36:48;32.80;25.60
1950;DHT22;975;48.760;9.152;2022-07-15T16:39:16;33.30;25.10
1950;DHT22;975;48.760;9.152;2022-07-15T16:41:43;33.30;24.60
1950;DHT22;975;48.760;9.152;2022-07-15T16:44:11;33.50;24.50
1950;DHT22;975;48.760;9.152;2022-07-15T16:46:38;33.80;24.30
1950;DHT22;975;48.760;9.152;2022-07-15T16:49:07;34.00;24.10
1950;DHT22;975;48.760;9.152;2022-07-15T16:51:35;34.00;24.10
1950;DHT22;975;48.760;9.152;2022-07-15T16:54:02;33.90;24.80
1950;DHT22;975;48.760;9.152;2022-07-15T16:56:30;33.80;24.10
1950;DHT22;975;48.760;9.152;2022-07-15T16:58:58;33.20;25.00
1950;DHT22;975;48.760;9.152;2022-07-15T17:01:25;33.30;24.90
1950;DHT22;975;48.760;9.152;2022-07-15T17:03:53;33.20;24.50
1950;DHT22;975;48.760;9.152;2022-07-15T17:06:22;30.70;26.70
1950;DHT22;975;48.760;9.152;2022-07-15T17:08:50;30.10;28.40
1950;DHT22;975;48.760;9.152;2022-07-15T17:11:17;30.30;28.20
1950;DHT22;975;48.760;9.152;2022-07-15T17:13:45;30.50;27.90
1950;DHT22;975;48.760;9.152;2022-07-15T17:16:12;30.60;27.50
1950;DHT22;975;48.760;9.152;2022-07-15T17:18:39;30.80;27.50
1950;DHT22;975;48.760;9.152;2022-07-15T17:21:09;30.50;27.40
1950;DHT22;975;48.760;9.152;2022-07-15T17:23:38;30.10;28.10
1950;DHT22;975;48.760;9.152;2022-07-15T17:26:05;29.60;28.30
1950;DHT22;975;48.760;9.152;2022-07-15T17:28:33;28.80;29.30
1950;DHT22;975;48.760;9.152;2022-07-15T17:31:01;28.20;30.10
1950;DHT22;975;48.760;9.152;2022-07-15T17:33:29;27.60;31.40
1950;DHT22;975;48.760;9.152;2022-07-15T17:35:57;27.10;32.80
1950;DHT22;975;48.760;9.152;2022-07-15T17:38:25;26.60;32.90
1950;DHT22;975;48.760;9.152;2022-07-15T17:40:53;26.40;33.50
1950;DHT22;975;48.760;9.152;2022-07-15T17:43:22;26.40;33.80
1950;DHT22;975;48.760;9.152;2022-07-15T17:45:51;26.40;33.80
1950;DHT22;975;48.760;9.152;2022-07-15T17:48:19;26.40;33.70
1950;DHT22;975;48.760;9.152;2022-07-15T17:50:46;26.40;33.80
1950;DHT22;975;48.760;9.152;2022-07-15T17:53:14;26.00;34.90
1950;DHT22;975;48.760;9.152;2022-07-15T17:55:41;25.80;34.80
1950;DHT22;975;48.760;9.152;2022-07-15T18:10:30;25.60;34.80
1950;DHT22;975;48.760;9.152;2022-07-15T18:12:57;25.00;36.60
1950;DHT22;975;48.760;9.152;2022-07-15T18:15:27;24.90;36.50
1950;DHT22;975;48.760;9.152;2022-07-15T18:17:54;24.80;36.70
1950;DHT22;975;48.760;9.152;2022-07-15T18:20:22;24.80;37.00
1950;DHT22;975;48.760;9.152;2022-07-15T18:22:50;24.80;37.00
1950;DHT22;975;48.760;9.152;2022-07-15T18:25:17;24.80;37.10
1950;DHT22;975;48.760;9.152;2022-07-15T18:27:45;24.80;37.60
1950;DHT22;975;48.760;9.152;2022-07-15T18:30:14;24.60;37.70
1950;DHT22;975;48.760;9.152;2022-07-15T18:32:43;24.60;37.40
1950;DHT22;975;48.760;9.152;2022-07-15T18:35:11;24.60;37.80
1950;DHT22;975;48.760;9.152;2022-07-15T18:37:40;24.50;38.20
1950;DHT22;975;48.760;9.152;2022-07-15T18:40:11;24.50;38.20
1950;DHT22;975;48.760;9.152;2022-07-15T18:42:42;24.50;38.70
1950;DHT22;975;48.760;9.152;2022-07-15T18:45:14;24.40;37.60
1950;DHT22;975;48.760;9.152;2022-07-15T18:47:43;24.30;37.90
1950;DHT22;975;48.760;9.152;2022-07-15T18:50:11;24.20;38.30
1950;DHT22;975;48.760;9.152;2022-07-15T18:52:38;24.10;38.30
1950;DHT22;975;48.760;9.152;2022-07-15T18:55:07;24.00;38.70
1950;DHT22;975;48.760;9.152;2022-07-15T20:06:55;24.00;38.60
1950;DHT22;975;48.760;9.152;2022-07-15T20:09:23;21.50;48.00
1950;DHT22;975;48.760;9.152;2022-07-15T20:11:52;21.30;48.00
1950;DHT22;975;48.760;9.152;2022-07-15T20:14:19;21.20;48.30
1950;DHT22;975;48.760;9.152;2022-07-15T20:16:47;21.20;48.30
1950;DHT22;975;48.760;9.152;2022-07-15T20:19:14;21.20;48.80
1950;DHT22;975;48.760;9.152;2022-07-15T20:21:42;21.10;48.80
1950;DHT22;975;48.760;9.152;2022-07-15T20:24:09;21.00;49.20
1950;DHT22;975;48.760;9.152;2022-07-15T20:41:26;20.90;49.50
1950;DHT22;975;48.760;9.152;2022-07-15T20:43:54;20.50;51.40
1950;DHT22;975;48.760;9.152;2022-07-15T20:46:23;20.40;51.60
1950;DHT22;975;48.760;9.152;2022-07-15T21:18:25;20.40;51.70
1950;DHT22;975;48.760;9.152;2022-07-15T21:20:55;19.40;54.80
1950;DHT22;975;48.760;9.152;2022-07-15T21:23:22;19.30;55.50
1950;DHT22;975;48.760;9.152;2022-07-15T21:25:50;19.30;55.50
1950;DHT22;975;48.760;9.152;2022-07-15T21:28:43;19.20;55.90
1950;DHT22;975;48.760;9.152;2022-07-15T21:31:10;19.10;56.20
1950;DHT22;975;48.760;9.152;2022-07-15T21:33:38;19.10;56.30
1950;DHT22;975;48.760;9.152;2022-07-15T21:36:07;19.00;56.60
1950;DHT22;975;48.760;9.152;2022-07-15T21:55:50;18.90;56.70
1950;DHT22;975;48.760;9.152;2022-07-15T22:32:59;18.50;58.10
1950;DHT22;975;48.760;9.152;2022-07-15T22:35:27;17.70;64.10
1950;DHT22;975;48.760;9.152;2022-07-15T22:57:38;17.60;64.30
1950;DHT22;975;48.760;9.152;2022-07-15T23:00:07;17.20;68.20
1950;DHT22;975;48.760;9.152;2022-07-15T23:02:37;17.00;68.20
1950;DHT22;975;48.760;9.152;2022-07-15T23:05:05;17.00;68.20
1950;DHT22;975;48.760;9.152;2022-07-15T23:07:33;17.00;68.20
1950;DHT22;975;48.760;9.152;2022-07-15T23:10:02;17.00;68.10
1950;DHT22;975;48.760;9.152;2022-07-15T23:12:30;16.90;68.40
1950;DHT22;975;48.760;9.152;2022-07-15T23:14:57;17.00;69.00
1950;DHT22;975;48.760;9.152;2022-07-15T23:17:25;17.00;69.10
1950;DHT22;975;48.760;9.152;2022-07-15T23:19:54;17.00;69.60
1950;DHT22;975;48.760;9.152;2022-07-15T23:22:22;16.90;69.90
1950;DHT22;975;48.760;9.152;2022-07-15T23:24:51;16.90;69.90
1950;DHT22;975;48.760;9.152;2022-07-15T23:27:18;16.80;70.20
1950;DHT22;975;48.760;9.152;2022-07-15T23:29:46;16.80;70.30
1950;DHT22;975;48.760;9.152;2022-07-15T23:32:14;16.80;70.40
1950;DHT22;975;48.760;9.152;2022-07-15T23:34:42;16.70;70.60
1950;DHT22;975;48.760;9.152;2022-07-15T23:37:11;16.70;70.70
1950;DHT22;975;48.760;9.152;2022-07-15T23:39:39;16.70;70.90
1950;DHT22;975;48.760;9.152;2022-07-15T23:42:06;16.70;71.10
1950;DHT22;975;48.760;9.152;2022-07-15T23:44:37;16.60;71.30
1950;DHT22;975;48.760;9.152;2022-07-15T23:47:11;16.60;71.80
1950;DHT22;975;48.760;9.152;2022-07-15T23:49:44;16.50;71.90
1950;DHT22;975;48.760;9.152;2022-07-15T23:52:13;16.60;71.90
1950;DHT22;975;48.760;9.152;2022-07-15T23:54:41;16.50;72.00
1950;DHT22;975;48.760;9.152;2022-07-15T23:57:09;16.50;71.60
1950;DHT22;975;48.760;9.152;2022-07-15T23:59:37;16.50;71.90
